KMYFKSMO

Guest
Details From KMYF - Montgomery Fld
To KSMO - SANTA MONICA MUNI
Flight Number -
Tags generated
Created
Modified
Stats Distance 98 nm / 181 km
Max Altitude 12,200 ft / 3,719 m
Waypoints 3
Social Downloads 0
Likes 0
Share VATSIM

Download

Looking for another format? Having issues loading an existing format? Contact us
Advertisement - Login to hide

Notes

Basic altitude profile: - Ascent Rate: 2500ft/min - Ascent Speed: 250kts - Cruise Altitude: 35000ft - Cruise Speed: 420kts - Descent Rate: 1500ft/min - Descent Speed: 250kts Options: - Use NATs: yes - Use PACOTS: yes - Use low airways: yes - Use high airways: yes

Route

KMYF FALCC KSMO

ID Type Via Altitude Latitude Longitude Leg Dist Tot Dist Heading (true) Name
O KMYF APT - 0 ft / 0 m 32.81574˚ -117.13970˚ - 0 nm - Montgomery Fld
FALCC FIX - 12,200 ft / 3,719 m 33.26141˚ -117.56846˚ 34 nm 34 nm 321° / 321° -
O KSMO APT - 0 ft / 0 m 34.01585˚ -118.45133˚ 63 nm 97 nm 316° / 316° SANTA MONICA MUNI

Altitude Profile

Advertisement - Login to hide

KMYF

Details ICAO KMYF
Name Montgomery Fld
Region United States
Timezone America/Los_Angeles (UTC-7.0)
Stats Elevation 427 ft / 130 m (AMSL)
Location 32.815737° -117.139705°
Runways 3
Magnetic Variation 11.491° E

METAR

KMYF 270753Z AUTO 23006KT 10SM OVC023 16/11 A2998 RMK AO2 SLP148 T01560111 402000128

Decode

TAF

Not found

Departure Runways

ID Width Length Bearing (true) Bearing (mag) Surface Threshold Offset Overrun Length
05 151 ft / 46 m 3,403 ft / 1,037 m 64.89° 53.40° Asphalt 390 ft / 119 m 0 ft / 0 m
10L 151 ft / 46 m 4,581 ft / 1,396 m 115.10° 103.61° Asphalt 0 ft / 0 m 0 ft / 0 m
10R 59 ft / 18 m 3,404 ft / 1,038 m 115.00° 103.51° Asphalt 0 ft / 0 m 0 ft / 0 m
23 151 ft / 46 m 3,403 ft / 1,037 m 244.89° 233.40° Asphalt 0 ft / 0 m 0 ft / 0 m
28L 59 ft / 18 m 3,404 ft / 1,038 m 295.00° 283.51° Asphalt 0 ft / 0 m 0 ft / 0 m
28R 151 ft / 46 m 4,581 ft / 1,396 m 295.10° 283.61° Asphalt 1,175 ft / 358 m 0 ft / 0 m

KSMO

Details ICAO KSMO (SMO)
Name SANTA MONICA MUNI
Region United States
Timezone America/Los_Angeles (UTC-7.0)
Stats Elevation 177 ft / 54 m (AMSL)
Location 34.015847° -118.451329°
Runways 1
Magnetic Variation 11.990° E

METAR

KSMO 270751Z AUTO 08003KT 10SM CLR 14/11 A2996 RMK AO2 SLP145 T01390111 401940122

Decode

TAF

TAF KSMO 270529Z 2706/2806 VRB03KT P6SM SKC FM271100 VRB03KT P6SM OVC015 FM271900 24010KT P6SM SKC FM280300 VRB03KT P6SM BKN015

Decode

Destination Runways

ID Width Length Bearing (true) Bearing (mag) Surface Threshold Offset Overrun Length
03 151 ft / 46 m 4,978 ft / 1,517 m 44.45° 32.46° Asphalt 0 ft / 0 m 0 ft / 0 m
21 151 ft / 46 m 4,978 ft / 1,517 m 224.46° 212.47° Asphalt 0 ft / 0 m 0 ft / 0 m

Popular Alternatives